Time;durP1;ratioP1;P1;durP2;ratioP2;P2;SDS_P1;SDS_P2;PMS_P1;PMS_P2;Temp;Humidity;BMP_temperature;BMP_pressure;BME280_temperature;BME280_humidity;BME280_pressure;Samples;Min_cycle;Max_cycle;Signal;HPM_P1;HPM_P2
2022/06/15 00:00:28;;;;;;;21.50;19.48;;;;;;;11.63;100.00;99578.03;2081857;28;20231;-74
2022/06/15 00:01:30;;;;;;;20.97;19.20;;;;;;;11.62;100.00;99571.09;2082071;28;20251;-74
2022/06/15 00:02:30;;;;;;;20.98;19.05;;;;;;;11.65;100.00;99575.09;2082469;28;20278;-74
2022/06/15 00:03:36;;;;;;;26.30;20.03;;;;;;;11.66;100.00;99582.81;2090913;28;20653;-74
2022/06/15 00:04:37;;;;;;;21.70;19.70;;;;;;;11.59;100.00;99585.03;2081987;28;20561;-74
2022/06/15 00:05:38;;;;;;;21.83;19.87;;;;;;;11.56;100.00;99583.75;2082135;28;20190;-74
2022/06/15 00:06:40;;;;;;;22.73;19.63;;;;;;;11.56;100.00;99581.09;2090411;28;20687;-74
2022/06/15 00:07:42;;;;;;;21.52;19.38;;;;;;;11.53;100.00;99578.19;2081837;28;20195;-73
2022/06/15 00:08:45;;;;;;;20.75;19.00;;;;;;;11.51;100.00;99585.69;2081867;28;20302;-74
2022/06/15 00:09:48;;;;;;;20.77;19.08;;;;;;;11.48;100.00;99586.28;2082536;28;20274;-74
2022/06/15 00:10:53;;;;;;;21.33;19.52;;;;;;;11.44;100.00;99585.25;2090693;28;20211;-74
2022/06/15 00:11:55;;;;;;;22.42;19.95;;;;;;;11.39;100.00;99590.69;2081800;28;20693;-73
2022/06/15 00:12:55;;;;;;;22.33;20.40;;;;;;;11.41;100.00;99591.19;2082035;28;20227;-74
2022/06/15 00:13:58;;;;;;;22.70;20.30;;;;;;;11.35;100.00;99587.78;2090711;28;20195;-73
2022/06/15 00:14:59;;;;;;;22.40;20.27;;;;;;;11.35;100.00;99586.97;2090858;28;20191;-74
2022/06/15 00:16:01;;;;;;;24.50;21.03;;;;;;;11.30;100.00;99585.97;2090971;28;20188;-73
2022/06/15 00:17:02;;;;;;;23.30;20.88;;;;;;;11.25;100.00;99588.72;2081824;28;20306;-73
2022/06/15 00:18:06;;;;;;;23.02;20.65;;;;;;;11.21;100.00;99582.38;2081959;28;20222;-73
2022/06/15 00:19:07;;;;;;;23.90;21.30;;;;;;;11.21;100.00;99589.59;2082487;28;20196;-74
2022/06/15 00:20:09;;;;;;;23.17;20.90;;;;;;;11.20;100.00;99595.97;2090719;28;20222;-73
2022/06/15 00:21:10;;;;;;;23.15;21.00;;;;;;;11.17;100.00;99592.03;2081231;28;20214;-73
2022/06/15 00:22:12;;;;;;;23.85;20.85;;;;;;;11.13;100.00;99596.34;2082018;28;20202;-73
2022/06/15 00:23:16;;;;;;;21.67;19.88;;;;;;;11.11;100.00;99593.16;2081788;28;20653;-73
2022/06/15 00:24:18;;;;;;;27.25;20.70;;;;;;;11.08;100.00;99596.41;2081733;28;20231;-73
2022/06/15 00:25:19;;;;;;;24.20;20.13;;;;;;;11.00;100.00;99600.50;2082098;28;20199;-74
2022/06/15 00:26:22;;;;;;;21.73;19.80;;;;;;;11.01;100.00;99599.41;2090707;28;20183;-74
2022/06/15 00:27:22;;;;;;;28.73;21.80;;;;;;;10.99;100.00;99588.22;2081849;28;20609;-74
2022/06/15 00:28:25;;;;;;;21.80;19.90;;;;;;;10.95;100.00;99594.44;2073573;28;20564;-73
2022/06/15 00:29:25;;;;;;;23.05;20.80;;;;;;;10.94;100.00;99595.50;2081777;28;20617;-74
2022/06/15 00:30:28;;;;;;;22.93;20.53;;;;;;;10.93;100.00;99600.03;2073702;28;20216;-74
2022/06/15 00:31:30;;;;;;;24.02;21.17;;;;;;;10.92;100.00;99598.44;2082058;28;20196;-73
2022/06/15 00:32:31;;;;;;;23.42;20.95;;;;;;;10.90;100.00;99597.16;2090633;28;20201;-74
2022/06/15 00:33:32;;;;;;;22.25;20.35;;;;;;;10.90;100.00;99597.16;2081778;28;20223;-73
2022/06/15 00:34:34;;;;;;;24.03;21.53;;;;;;;10.87;100.00;99595.84;2081804;28;20700;-73
2022/06/15 00:35:35;;;;;;;23.27;20.98;;;;;;;10.86;100.00;99596.13;2090624;28;20215;-74
2022/06/15 00:36:36;;;;;;;22.73;20.60;;;;;;;10.83;100.00;99596.69;2081494;28;20230;-74
2022/06/15 00:37:38;;;;;;;23.75;21.55;;;;;;;10.82;100.00;99595.91;2081784;28;20631;-74
2022/06/15 00:38:47;;;;;;;23.20;20.83;;;;;;;10.76;100.00;99600.50;2090794;28;20221;-73
2022/06/15 00:39:49;;;;;;;23.67;21.17;;;;;;;10.73;100.00;99598.41;2090729;28;20610;-74
2022/06/15 00:40:50;;;;;;;23.90;20.98;;;;;;;10.71;100.00;99600.56;2081653;28;20687;-74
2022/06/15 00:41:53;;;;;;;23.13;20.80;;;;;;;10.66;100.00;99603.28;2081826;28;20184;-73
2022/06/15 00:42:53;;;;;;;24.27;20.73;;;;;;;10.62;100.00;99596.13;2081669;28;20575;-73
2022/06/15 00:43:57;;;;;;;22.90;20.50;;;;;;;10.57;100.00;99596.97;2081394;28;20219;-73
2022/06/15 00:44:59;;;;;;;22.80;20.67;;;;;;;10.54;100.00;99594.88;2081243;28;20203;-74
2022/06/15 00:46:01;;;;;;;22.98;20.88;;;;;;;10.52;100.00;99593.56;2073384;28;20223;-74
2022/06/15 00:47:07;;;;;;;22.80;20.42;;;;;;;10.50;100.00;99595.69;2073760;28;20192;-73
2022/06/15 00:48:08;;;;;;;22.63;20.42;;;;;;;10.45;100.00;99594.69;2081646;28;20279;-74
2022/06/15 00:49:14;;;;;;;26.67;21.33;;;;;;;10.45;100.00;99600.03;2081352;28;20243;-74
2022/06/15 00:50:19;;;;;;;25.75;21.83;;;;;;;10.42;100.00;99597.94;2073701;28;20203;-73
2022/06/15 00:51:20;;;;;;;23.65;21.23;;;;;;;10.41;100.00;99598.97;2081955;28;20219;-73
2022/06/15 00:52:32;;;;;;;24.40;21.98;;;;;;;10.41;100.00;99601.66;2081717;28;20528;-73
2022/06/15 00:53:33;;;;;;;29.65;22.40;;;;;;;10.40;100.00;99597.38;2073602;28;20176;-73
2022/06/15 00:54:34;;;;;;;24.10;21.83;;;;;;;10.39;100.00;99597.69;2073930;28;20184;-74
2022/06/15 00:55:36;;;;;;;24.00;21.75;;;;;;;10.41;100.00;99606.19;2074324;28;20549;-74
2022/06/15 00:56:38;;;;;;;23.85;21.50;;;;;;;10.40;100.00;99597.38;2074202;28;20196;-73
2022/06/15 00:57:41;;;;;;;25.95;21.60;;;;;;;10.40;100.00;99591.25;2073353;28;20236;-73
2022/06/15 00:58:46;;;;;;;27.45;21.50;;;;;;;10.38;100.00;99602.22;2073485;28;20590;-73
2022/06/15 00:59:54;;;;;;;27.33;22.45;;;;;;;10.36;100.00;99598.25;2073528;28;20621;-74
2022/06/15 01:00:56;;;;;;;29.73;22.88;;;;;;;10.35;100.00;99596.66;2066105;28;20201;-74
2022/06/15 01:01:57;;;;;;;25.20;22.75;;;;;;;10.35;100.00;99599.34;2073503;28;20193;-73
2022/06/15 01:02:59;;;;;;;24.83;22.23;;;;;;;10.34;100.00;99598.53;2073446;28;20193;-73
2022/06/15 01:04:01;;;;;;;23.75;21.48;;;;;;;10.35;100.00;99600.13;2073689;28;20189;-74
2022/06/15 01:05:05;;;;;;;25.50;22.08;;;;;;;10.37;100.00;99605.16;2072758;28;20223;-73
2022/06/15 01:06:13;;;;;;;28.02;21.35;;;;;;;10.35;100.00;99608.13;2080947;28;20728;-74
2022/06/15 01:07:38;;;;;;;24.70;22.08;;;;;;;10.35;100.00;99602.78;2080709;28;20579;-74
2022/06/15 01:08:44;;;;;;;26.05;22.13;;;;;;;10.38;100.00;99598.75;2073916;28;20608;-73
2022/06/15 01:10:01;;;;;;;25.10;22.67;;;;;;;10.38;100.00;99602.22;2074341;28;20637;-74
2022/06/15 01:11:24;;;;;;;24.60;21.52;;;;;;;10.40;100.00;99602.72;2073607;28;20237;-74
2022/06/15 01:12:30;;;;;;;25.27;21.92;;;;;;;10.42;100.00;99605.09;2073813;28;20267;-74
2022/06/15 01:13:48;;;;;;;24.65;22.40;;;;;;;10.44;100.00;99601.09;2072791;28;20196;-74
2022/06/15 01:15:18;;;;;;;25.50;22.83;;;;;;;10.46;100.00;99608.81;2073882;28;20183;-74
2022/06/15 01:16:24;;;;;;;27.08;23.52;;;;;;;10.45;100.00;99612.56;2074198;28;20215;-74
2022/06/15 01:17:34;;;;;;;26.23;23.27;;;;;;;10.47;100.00;99605.88;2073546;28;20200;-73
2022/06/15 01:18:41;;;;;;;23.67;21.38;;;;;;;10.47;100.00;99603.19;2065851;28;20671;-73
2022/06/15 01:20:15;;;;;;;25.27;21.95;;;;;;;10.47;100.00;99603.19;2073228;28;20201;-73
2022/06/15 01:21:21;;;;;;;24.70;22.05;;;;;;;10.50;100.00;99604.50;2072900;28;20670;-74
2022/06/15 01:22:37;;;;;;;24.67;22.50;;;;;;;10.46;100.00;99609.63;2074180;28;20655;-73
2022/06/15 01:24:20;;;;;;;24.90;22.63;;;;;;;10.52;100.00;99613.03;2074171;28;20172;-73
2022/06/15 01:25:45;;;;;;;26.20;22.65;;;;;;;10.54;100.00;99610.09;2073300;28;20200;-73
2022/06/15 01:26:59;;;;;;;24.38;21.67;;;;;;;10.57;100.00;99610.31;2069842;28;20589;-73
2022/06/15 01:28:30;;;;;;;24.75;22.20;;;;;;;10.57;100.00;99610.31;2073244;28;20666;-73
2022/06/15 01:29:51;;;;;;;24.50;22.08;;;;;;;10.59;100.00;99615.34;2063961;28;20203;-73
2022/06/15 01:30:58;;;;;;;24.20;21.70;;;;;;;10.61;100.00;99606.00;2067685;28;20292;-74
2022/06/15 01:32:03;;;;;;;23.42;21.08;;;;;;;10.66;100.00;99613.94;2065971;28;20192;-73
2022/06/15 01:33:11;;;;;;;24.65;21.85;;;;;;;10.71;100.00;99613.91;2072690;28;20581;-73
2022/06/15 01:34:19;;;;;;;27.67;22.77;;;;;;;10.76;100.00;99621.06;2066135;28;20201;-74
2022/06/15 01:35:23;;;;;;;23.83;21.42;;;;;;;10.81;100.00;99609.53;2066075;28;20212;-73
2022/06/15 01:36:30;;;;;;;24.52;21.80;;;;;;;10.83;100.00;99608.16;2065068;28;20217;-73
2022/06/15 01:37:34;;;;;;;22.38;20.45;;;;;;;10.89;100.00;99611.59;2065206;28;20232;-73
2022/06/15 01:38:42;;;;;;;22.35;20.35;;;;;;;10.92;100.00;99608.34;2073372;28;20275;-73
2022/06/15 01:39:49;;;;;;;22.25;20.00;;;;;;;11.00;100.00;99607.72;2073403;28;20203;-73
2022/06/15 01:40:58;;;;;;;22.05;20.05;;;;;;;11.02;100.00;99608.22;2065813;28;20666;-74
2022/06/15 01:42:06;;;;;;;22.45;20.13;;;;;;;11.04;100.00;99595.41;2066311;28;20201;-73
2022/06/15 01:43:09;;;;;;;21.85;20.05;;;;;;;11.10;100.00;99599.56;2073638;28;20312;-73
2022/06/15 01:44:14;;;;;;;22.67;20.48;;;;;;;11.16;100.00;99595.78;2073176;28;20204;-73
2022/06/15 01:45:21;;;;;;;22.17;20.15;;;;;;;11.14;100.00;99592.59;2065728;28;20671;-73
2022/06/15 01:46:28;;;;;;;22.20;19.95;;;;;;;11.18;100.00;99595.47;2073306;28;20188;-73
2022/06/15 01:47:35;;;;;;;22.42;20.08;;;;;;;11.13;100.00;99585.66;2073283;28;20638;-74
2022/06/15 01:48:37;;;;;;;23.35;20.88;;;;;;;11.19;100.00;99592.53;2065659;28;20193;-74
2022/06/15 01:49:41;;;;;;;22.52;20.50;;;;;;;11.22;100.00;99594.63;2073475;28;20191;-74
2022/06/15 01:50:46;;;;;;;22.08;19.95;;;;;;;11.23;100.00;99588.22;2073147;28;20247;-73
2022/06/15 01:51:47;;;;;;;22.95;20.65;;;;;;;11.25;100.00;99590.59;2072643;28;20323;-73
2022/06/15 01:52:52;;;;;;;21.42;19.35;;;;;;;11.26;100.00;99595.63;2074147;28;20673;-73
2022/06/15 01:53:59;;;;;;;21.30;19.42;;;;;;;11.28;100.00;99590.00;2082067;28;20229;-73
2022/06/15 01:55:05;;;;;;;22.35;20.30;;;;;;;11.29;100.00;99594.25;2089755;28;20599;-73
2022/06/15 01:56:11;;;;;;;21.58;19.90;;;;;;;11.30;100.00;99588.66;2088978;28;20203;-73
2022/06/15 01:57:16;;;;;;;22.70;20.77;;;;;;;11.30;100.00;99587.88;2082073;28;20586;-73
2022/06/15 01:58:18;;;;;;;22.58;20.40;;;;;;;11.32;100.00;99594.50;2081470;28;20353;-73
2022/06/15 01:59:22;;;;;;;22.35;20.10;;;;;;;11.31;100.00;99584.91;2081631;28;20198;-74
2022/06/15 02:00:24;;;;;;;22.40;20.25;;;;;;;11.33;100.00;99595.28;2081658;28;20203;-73
2022/06/15 02:01:34;;;;;;;21.23;19.35;;;;;;;11.35;100.00;99592.31;2089542;28;20191;-73
2022/06/15 02:02:40;;;;;;;22.10;20.08;;;;;;;11.37;100.00;99590.94;2082466;28;20598;-74
2022/06/15 02:03:47;;;;;;;22.50;20.30;;;;;;;11.37;100.00;99584.81;2089202;28;20195;-73
2022/06/15 02:04:55;;;;;;;24.23;21.73;;;;;;;11.41;100.00;99591.19;2089531;28;20303;-74
2022/06/15 02:06:02;;;;;;;23.48;21.15;;;;;;;11.40;100.00;99589.59;2089384;28;20241;-73
2022/06/15 02:07:20;;;;;;;23.00;20.70;;;;;;;11.41;100.00;99585.84;2091417;28;20171;-74
2022/06/15 02:08:27;;;;;;;23.15;21.15;;;;;;;11.39;100.00;99596.03;2091234;28;20573;-73
2022/06/15 02:09:32;;;;;;;23.23;21.23;;;;;;;11.37;100.00;99584.81;2083786;28;20552;-73
2022/06/15 02:10:37;;;;;;;23.98;21.75;;;;;;;11.36;100.00;99599.25;2090737;28;20623;-74
2022/06/15 02:11:40;;;;;;;25.88;22.00;;;;;;;11.35;100.00;99585.09;2083657;28;20204;-73
2022/06/15 02:12:48;;;;;;;24.88;21.90;;;;;;;11.36;100.00;99588.56;2083310;28;20192;-74
2022/06/15 02:13:55;;;;;;;25.08;22.40;;;;;;;11.35;100.00;99590.44;2091166;28;20187;-73
2022/06/15 02:15:00;;;;;;;24.33;21.75;;;;;;;11.37;100.00;99587.47;2083587;28;20191;-74
2022/06/15 02:16:04;;;;;;;24.05;21.45;;;;;;;11.37;100.00;99588.28;2083362;28;20192;-73
2022/06/15 02:17:10;;;;;;;25.13;22.52;;;;;;;11.36;100.00;99591.25;2091059;28;20645;-74
2022/06/15 02:18:13;;;;;;;25.05;22.55;;;;;;;11.35;100.00;99595.00;2083363;28;20579;-74
2022/06/15 02:19:17;;;;;;;21.20;19.20;;;;;;;11.36;100.00;99591.25;2091429;28;20269;-74
2022/06/15 02:20:19;;;;;;;21.13;19.13;;;;;;;11.33;100.00;99590.75;2091712;28;20191;-73
2022/06/15 02:21:23;;;;;;;20.67;18.70;;;;;;;11.35;100.00;99593.13;2090384;28;20313;-74
2022/06/15 02:22:29;;;;;;;21.17;19.05;;;;;;;11.37;100.00;99600.84;2083318;28;20583;-74
2022/06/15 02:23:32;;;;;;;20.85;18.83;;;;;;;11.39;100.00;99596.03;2091024;28;20664;-73
2022/06/15 02:24:33;;;;;;;20.40;18.77;;;;;;;11.39;100.00;99596.03;2091105;28;20191;-74
2022/06/15 02:25:39;;;;;;;21.48;19.13;;;;;;;11.39;100.00;99593.34;2091037;28;20186;-73
2022/06/15 02:26:42;;;;;;;20.25;18.65;;;;;;;11.42;100.00;99598.13;2091154;28;20202;-73
2022/06/15 02:27:45;;;;;;;21.17;19.03;;;;;;;11.41;100.00;99586.63;2083022;28;20226;-73
2022/06/15 02:28:49;;;;;;;20.40;18.70;;;;;;;11.44;100.00;99595.94;2082968;28;20282;-74
2022/06/15 02:29:54;;;;;;;21.00;18.50;;;;;;;11.45;100.00;99595.66;2090933;28;20226;-74
2022/06/15 02:30:55;;;;;;;20.52;18.92;;;;;;;11.46;100.00;99588.44;2091229;28;20167;-74
2022/06/15 02:31:58;;;;;;;21.27;19.40;;;;;;;11.47;100.00;99577.47;2090906;28;20229;-73
2022/06/15 02:33:09;;;;;;;20.58;18.88;;;;;;;11.52;100.00;99589.94;2082999;28;20291;-74
2022/06/15 02:34:12;;;;;;;21.17;19.40;;;;;;;11.48;100.00;99584.41;2084489;28;20190;-73
2022/06/15 02:35:18;;;;;;;21.23;19.23;;;;;;;11.51;100.00;99594.50;2090851;28;20621;-74
2022/06/15 02:36:23;;;;;;;19.98;18.25;;;;;;;11.50;100.00;99590.25;2090610;28;20226;-73
2022/06/15 02:37:24;;;;;;;21.27;19.20;;;;;;;11.52;100.00;99592.63;2090848;28;20206;-73
2022/06/15 02:38:26;;;;;;;20.52;18.52;;;;;;;11.53;100.00;99594.22;2082274;28;20669;-74
2022/06/15 02:39:28;;;;;;;20.63;18.83;;;;;;;11.55;100.00;99592.88;2090892;28;20298;-73
2022/06/15 02:40:29;;;;;;;20.92;19.00;;;;;;;11.57;100.00;99587.22;2082711;28;20235;-73
2022/06/15 02:41:30;;;;;;;22.30;18.47;;;;;;;11.56;100.00;99593.66;2082678;28;20196;-74
2022/06/15 02:42:37;;;;;;;20.48;18.52;;;;;;;11.54;100.00;99590.44;2082998;28;20215;-73
2022/06/15 02:43:45;;;;;;;21.00;19.10;;;;;;;11.56;100.00;99586.44;2083556;28;20195;-73
2022/06/15 02:44:47;;;;;;;21.63;19.70;;;;;;;11.59;100.00;99593.06;2082849;28;20207;-74
2022/06/15 02:45:49;;;;;;;21.88;18.58;;;;;;;11.58;100.00;99586.94;2082644;28;20202;-74
2022/06/15 02:46:54;;;;;;;19.75;18.00;;;;;;;11.60;100.00;99591.97;2083447;28;20199;-73
2022/06/15 02:47:56;;;;;;;20.90;18.73;;;;;;;11.58;100.00;99594.16;2082832;28;20223;-74
2022/06/15 02:49:01;;;;;;;20.60;18.60;;;;;;;11.60;100.00;99594.66;2090799;28;20581;-74
2022/06/15 02:50:05;;;;;;;21.15;19.13;;;;;;;11.60;100.00;99594.66;2082907;28;20196;-73
2022/06/15 02:51:09;;;;;;;20.13;18.45;;;;;;;11.58;100.00;99586.13;2090125;28;20203;-73
2022/06/15 02:52:15;;;;;;;20.05;18.20;;;;;;;11.58;100.00;99581.59;2083420;28;20273;-74
2022/06/15 02:53:20;;;;;;;20.55;18.48;;;;;;;11.58;100.00;99589.59;2090560;28;20239;-73
2022/06/15 02:54:25;;;;;;;20.15;18.42;;;;;;;11.59;100.00;99591.19;2090749;28;20230;-73
2022/06/15 02:55:35;;;;;;;20.15;18.30;;;;;;;11.58;100.00;99586.13;2083482;28;20195;-73
2022/06/15 02:56:40;;;;;;;20.30;18.38;;;;;;;11.58;100.00;99586.94;2090739;28;20203;-73
2022/06/15 02:57:45;;;;;;;20.77;18.58;;;;;;;11.58;100.00;99589.59;2090672;28;20195;-73
2022/06/15 02:58:47;;;;;;;21.60;19.40;;;;;;;11.57;100.00;99590.69;2090371;28;20207;-73
2022/06/15 02:59:50;;;;;;;21.15;19.00;;;;;;;11.60;100.00;99590.09;2090708;28;20222;-73
2022/06/15 03:00:55;;;;;;;20.73;18.92;;;;;;;11.62;100.00;99597.81;2083180;28;20183;-73
2022/06/15 03:02:00;;;;;;;21.58;19.50;;;;;;;11.60;100.00;99589.31;2083034;28;20629;-73
2022/06/15 03:03:03;;;;;;;19.95;18.08;;;;;;;11.58;100.00;99588.81;2090666;28;20206;-73
2022/06/15 03:04:09;;;;;;;20.15;18.30;;;;;;;11.60;100.00;99594.66;2082312;28;20286;-74
2022/06/15 03:05:10;;;;;;;20.70;18.75;;;;;;;11.59;100.00;99593.06;2090833;28;20286;-74
2022/06/15 03:06:13;;;;;;;20.00;18.33;;;;;;;11.58;100.00;99594.94;2089692;28;20681;-74
2022/06/15 03:07:14;;;;;;;20.85;19.05;;;;;;;11.59;100.00;99590.41;2090709;28;20191;-73
2022/06/15 03:08:16;;;;;;;20.98;19.00;;;;;;;11.61;100.00;99593.56;2089768;28;20199;-74
2022/06/15 03:09:19;;;;;;;20.77;18.80;;;;;;;11.61;100.00;99588.22;2082745;28;20653;-73
2022/06/15 03:10:25;;;;;;;21.63;19.80;;;;;;;11.61;100.00;99590.91;2082726;28;20219;-73
2022/06/15 03:11:27;;;;;;;21.30;19.20;;;;;;;11.66;100.00;99590.84;2082678;28;20219;-74
2022/06/15 03:12:34;;;;;;;21.70;19.63;;;;;;;11.67;100.00;99586.28;2090815;28;20195;-74
2022/06/15 03:13:35;;;;;;;21.65;19.60;;;;;;;11.67;100.00;99591.63;2090557;28;20199;-73
2022/06/15 03:14:38;;;;;;;22.38;20.00;;;;;;;11.68;100.00;99591.31;2082516;28;20677;-73
2022/06/15 03:15:46;;;;;;;21.13;19.50;;;;;;;11.72;100.00;99591.53;2083249;28;20565;-73
2022/06/15 03:16:49;;;;;;;22.85;20.55;;;;;;;11.70;100.00;99589.16;2090492;28;20187;-73
2022/06/15 03:17:55;;;;;;;21.58;19.33;;;;;;;11.74;100.00;99589.38;2082942;28;20195;-73
2022/06/15 03:18:56;;;;;;;22.17;20.05;;;;;;;11.74;100.00;99592.06;2082553;28;20298;-74
2022/06/15 03:20:00;;;;;;;21.50;19.48;;;;;;;11.74;100.00;99595.53;2082246;28;20204;-73
2022/06/15 03:21:02;;;;;;;21.95;20.02;;;;;;;11.75;100.00;99593.66;2081987;28;20199;-74
2022/06/15 03:22:04;;;;;;;21.13;19.25;;;;;;;11.75;100.00;99589.09;2090575;28;20622;-73
2022/06/15 03:23:10;;;;;;;22.25;19.92;;;;;;;11.78;100.00;99601.88;2090576;28;20653;-74
2022/06/15 03:24:16;;;;;;;20.98;18.95;;;;;;;11.80;100.00;99601.59;2082515;28;20192;-73
2022/06/15 03:25:18;;;;;;;21.90;19.63;;;;;;;11.82;100.00;99599.47;2082904;28;20203;-73
2022/06/15 03:26:19;;;;;;;21.58;19.75;;;;;;;11.84;100.00;99599.94;2082284;28;20642;-73
2022/06/15 03:27:20;;;;;;;22.65;20.13;;;;;;;11.83;100.00;99595.69;2082316;28;20199;-73
2022/06/15 03:28:25;;;;;;;22.58;20.27;;;;;;;11.82;100.00;99602.13;2090529;28;20195;-74
2022/06/15 03:29:26;;;;;;;22.80;20.45;;;;;;;11.84;100.00;99602.63;2082807;28;20247;-73
2022/06/15 03:30:35;;;;;;;21.48;19.50;;;;;;;11.84;100.00;99602.63;2083136;28;20199;-73
2022/06/15 03:31:40;;;;;;;23.52;21.27;;;;;;;11.87;100.00;99604.72;2083171;28;20275;-74
2022/06/15 03:32:42;;;;;;;23.15;20.95;;;;;;;11.88;100.00;99606.28;2090451;28;20220;-74
2022/06/15 03:33:43;;;;;;;23.05;20.52;;;;;;;11.87;100.00;99605.50;2082517;28;20226;-73
2022/06/15 03:34:50;;;;;;;23.88;20.83;;;;;;;11.89;100.00;99597.19;2083152;28;20568;-73
2022/06/15 03:35:53;;;;;;;22.33;20.13;;;;;;;11.91;100.00;99602.25;2090508;28;20198;-73
2022/06/15 03:37:01;;;;;;;23.20;20.77;;;;;;;11.92;100.00;99599.28;2082801;28;20291;-73
2022/06/15 03:38:03;;;;;;;22.95;20.63;;;;;;;11.95;100.00;99603.25;2082470;28;20286;-74
2022/06/15 03:39:10;;;;;;;22.73;20.73;;;;;;;11.92;100.00;99606.53;2090530;28;20187;-74
2022/06/15 03:40:14;;;;;;;24.05;21.63;;;;;;;11.93;100.00;99602.75;2082690;28;20637;-74
2022/06/15 03:41:20;;;;;;;23.73;21.40;;;;;;;11.92;100.00;99606.53;2090617;28;20187;-74
2022/06/15 03:42:24;;;;;;;24.77;22.52;;;;;;;11.93;100.00;99600.09;2082264;28;20619;-73
2022/06/15 03:43:26;;;;;;;25.73;22.73;;;;;;;11.95;100.00;99605.94;2090378;28;20199;-73
2022/06/15 03:44:32;;;;;;;28.45;22.83;;;;;;;11.96;100.00;99607.50;2082546;28;20203;-74
2022/06/15 03:45:35;;;;;;;28.77;21.55;;;;;;;11.98;100.00;99606.13;2082851;28;20250;-73
2022/06/15 03:46:36;;;;;;;23.67;21.73;;;;;;;12.00;100.00;99608.53;2090308;28;20537;-74
2022/06/15 03:47:46;;;;;;;23.70;21.58;;;;;;;12.02;100.00;99598.34;2090390;28;20195;-73
2022/06/15 03:48:48;;;;;;;23.30;20.88;;;;;;;12.05;100.00;99605.75;2082622;28;20286;-74
2022/06/15 03:49:52;;;;;;;23.75;21.52;;;;;;;12.07;100.00;99606.25;2090465;28;20190;-73
2022/06/15 03:50:55;;;;;;;24.20;20.58;;;;;;;12.07;100.00;99603.59;2089848;28;20282;-74
2022/06/15 03:51:59;;;;;;;24.35;21.73;;;;;;;12.06;100.00;99604.69;2082223;28;20249;-74
2022/06/15 03:53:03;;;;;;;24.83;22.42;;;;;;;12.04;100.00;99599.63;2090171;28;20230;-73
2022/06/15 03:54:07;;;;;;;24.90;22.23;;;;;;;12.06;100.00;99604.69;2090389;28;20185;-73
2022/06/15 03:55:09;;;;;;;25.13;22.08;;;;;;;12.07;100.00;99609.72;2082065;28;20188;-73
2022/06/15 03:56:11;;;;;;;25.33;22.77;;;;;;;12.06;100.00;99602.78;2090280;28;20206;-73
2022/06/15 03:57:12;;;;;;;24.75;22.42;;;;;;;12.08;100.00;99606.00;2082096;28;20196;-74
2022/06/15 03:58:18;;;;;;;25.65;23.35;;;;;;;12.12;100.00;99603.50;2082097;28;20202;-74
2022/06/15 03:59:24;;;;;;;24.67;22.48;;;;;;;12.13;100.00;99607.78;2090304;28;20245;-74
2022/06/15 04:00:32;;;;;;;24.75;22.20;;;;;;;12.16;100.00;99607.19;2083117;28;20210;-74
2022/06/15 04:01:42;;;;;;;24.00;21.60;;;;;;;12.19;100.00;99608.50;2083622;28;20238;-74
2022/06/15 04:02:45;;;;;;;24.33;22.03;;;;;;;12.21;100.00;99609.00;2082086;28;20188;-74
2022/06/15 04:03:52;;;;;;;24.42;22.15;;;;;;;12.24;100.00;99613.75;2083185;28;20651;-74
2022/06/15 04:04:58;;;;;;;24.75;22.15;;;;;;;12.19;100.00;99606.63;2090206;28;20187;-74
2022/06/15 04:06:02;;;;;;;23.92;21.38;;;;;;;12.24;100.00;99603.84;2081578;28;20576;-73
2022/06/15 04:08:37;;;;;;;23.77;21.60;;;;;;;12.37;100.00;99613.78;2089886;28;20187;-73
2022/06/15 04:09:42;;;;;;;23.80;21.33;;;;;;;12.37;100.00;99613.78;2083861;28;20192;-73
2022/06/15 04:10:45;;;;;;;23.58;21.40;;;;;;;12.38;100.00;99615.38;2090472;28;20733;-74
2022/06/15 04:12:02;;;;;;;23.65;21.48;;;;;;;12.39;100.00;99616.97;2090032;28;20219;-73
2022/06/15 04:13:14;;;;;;;23.85;21.48;;;;;;;12.37;100.00;99613.00;2085133;28;20187;-74
2022/06/15 04:14:16;;;;;;;23.48;21.48;;;;;;;12.38;100.00;99611.91;2082553;28;20200;-74
2022/06/15 04:15:21;;;;;;;23.63;21.48;;;;;;;12.38;100.00;99620.72;2082400;28;20191;-74
2022/06/15 04:16:28;;;;;;;24.20;21.73;;;;;;;12.41;100.00;99620.13;2090144;28;20198;-74
2022/06/15 04:17:30;;;;;;;22.95;21.00;;;;;;;12.42;100.00;99615.56;2081971;28;20195;-74
2022/06/15 04:18:51;;;;;;;25.40;21.92;;;;;;;12.47;100.00;99622.75;2090011;28;20252;-74
2022/06/15 04:21:11;;;;;;;22.83;20.50;;;;;;;12.47;100.00;99617.38;2088876;28;20192;-74
2022/06/15 04:22:12;;;;;;;23.33;21.20;;;;;;;12.51;100.00;99615.69;2090106;28;20206;-74
2022/06/15 04:23:15;;;;;;;23.23;21.07;;;;;;;12.53;100.00;99616.22;2090052;28;20203;-74
2022/06/15 04:24:17;;;;;;;24.50;22.27;;;;;;;12.58;100.00;99619.56;2090049;28;20203;-74
2022/06/15 04:25:19;;;;;;;23.70;21.25;;;;;;;12.61;100.00;99618.22;2090116;28;20193;-74
2022/06/15 04:26:21;;;;;;;23.75;21.48;;;;;;;12.65;100.00;99613.84;2081827;28;20311;-74
2022/06/15 04:27:23;;;;;;;23.60;21.35;;;;;;;12.61;100.00;99608.28;2082084;28;20203;-74
2022/06/15 04:28:27;;;;;;;23.27;20.87;;;;;;;12.61;100.00;99605.63;2090203;28;20191;-74
2022/06/15 04:29:31;;;;;;;23.45;21.35;;;;;;;12.60;100.00;99600.56;2089806;28;20199;-74
2022/06/15 04:30:34;;;;;;;23.90;21.60;;;;;;;12.60;100.00;99612.06;2081916;28;20703;-75
2022/06/15 04:31:35;;;;;;;24.00;21.63;;;;;;;12.55;100.00;99601.44;2089507;28;20198;-74
2022/06/15 04:32:37;;;;;;;24.60;22.30;;;;;;;12.51;100.00;99602.31;2081880;28;20200;-74
2022/06/15 04:33:43;;;;;;;25.48;22.67;;;;;;;12.47;100.00;99601.31;2082181;28;20196;-74
2022/06/15 04:34:44;;;;;;;24.23;22.00;;;;;;;12.45;100.00;99607.78;2089773;28;20241;-74
2022/06/15 04:35:46;;;;;;;24.00;21.73;;;;;;;12.42;100.00;99608.38;2081879;28;20200;-74
2022/06/15 04:36:52;;;;;;;23.65;21.45;;;;;;;12.37;100.00;99603.09;2089705;28;20477;-74
2022/06/15 04:37:54;;;;;;;22.83;20.58;;;;;;;12.35;100.00;99604.47;2081820;28;20662;-74
2022/06/15 04:39:00;;;;;;;23.30;21.05;;;;;;;12.34;100.00;99603.69;2082967;28;20188;-74
2022/06/15 04:40:12;;;;;;;23.10;20.92;;;;;;;12.27;100.00;99605.16;2089991;28;20195;-74
2022/06/15 04:41:15;;;;;;;24.92;22.55;;;;;;;12.26;100.00;99607.03;2089937;28;20194;-74
2022/06/15 04:42:17;;;;;;;23.80;21.60;;;;;;;12.23;100.00;99609.50;2081916;28;20226;-74
2022/06/15 04:43:18;;;;;;;23.83;21.52;;;;;;;12.19;100.00;99601.25;2081626;28;20200;-74
2022/06/15 04:44:19;;;;;;;29.27;22.00;;;;;;;12.16;100.00;99604.50;2081784;28;20194;-74
2022/06/15 04:45:24;;;;;;;26.02;22.13;;;;;;;12.13;100.00;99605.91;2089814;28;20264;-74
2022/06/15 04:46:35;;;;;;;23.25;21.10;;;;;;;12.10;100.00;99603.03;2083038;28;20220;-74
2022/06/15 04:47:38;;;;;;;23.88;21.20;;;;;;;12.04;100.00;99596.94;2081759;28;20200;-74
2022/06/15 04:48:42;;;;;;;24.55;21.77;;;;;;;12.04;100.00;99598.84;2089946;28;20653;-75
2022/06/15 04:49:44;;;;;;;23.45;21.38;;;;;;;12.02;100.00;99609.81;2082179;28;20633;-74
2022/06/15 04:50:46;;;;;;;24.90;22.33;;;;;;;11.98;100.00;99589.28;2081627;28;20195;-75
2022/06/15 04:51:46;;;;;;;24.70;22.15;;;;;;;12.00;100.00;99603.97;2089475;28;20562;-74
2022/06/15 04:52:50;;;;;;;24.33;21.90;;;;;;;11.98;100.00;99611.47;2089767;28;20297;-74
2022/06/15 04:53:52;;;;;;;23.70;21.27;;;;;;;12.00;100.00;99606.66;2090011;28;20685;-75
2022/06/15 04:54:54;;;;;;;26.10;22.25;;;;;;;11.97;100.00;99604.53;2089840;28;20210;-73
2022/06/15 04:55:56;;;;;;;27.63;22.67;;;;;;;12.00;100.00;99603.97;2090007;28;20218;-73
2022/06/15 04:56:57;;;;;;;24.43;21.93;;;;;;;11.98;100.00;99605.34;2089414;28;20191;-74
2022/06/15 04:57:59;;;;;;;23.98;21.45;;;;;;;12.00;100.00;99608.53;2081641;28;20716;-74